Time;durP1;ratioP1;P1;durP2;ratioP2;P2;SDS_P1;SDS_P2;PMS_P1;PMS_P2;Temp;Humidity;BMP_temperature;BMP_pressure;BME280_temperature;BME280_humidity;BME280_pressure;Samples;Min_cycle;Max_cycle;Signal;HPM_P1;HPM_P2
2022/10/21 00:00:58;;;;;;;;;;;17.90;99.90;;;;;;5036115;28;20259;-62
2022/10/21 00:03:24;;;;;;;;;;;17.90;99.90;;;;;;5036411;28;19920;-62
2022/10/21 00:05:50;;;;;;;;;;;17.90;99.90;;;;;;5037590;28;19920;-62
2022/10/21 00:08:17;;;;;;;;;;;17.90;99.90;;;;;;5037391;28;20148;-62
2022/10/21 00:10:43;;;;;;;;;;;17.90;99.90;;;;;;5037461;28;19916;-62
2022/10/21 00:13:08;;;;;;;;;;;17.90;99.90;;;;;;5038108;28;19924;-62
2022/10/21 00:15:34;;;;;;;;;;;17.90;99.90;;;;;;5038374;28;20289;-62
2022/10/21 00:17:59;;;;;;;;;;;17.90;99.90;;;;;;5038749;28;19909;-62
2022/10/21 00:20:25;;;;;;;;;;;17.90;99.90;;;;;;5037772;28;19942;-62
2022/10/21 00:22:51;;;;;;;;;;;17.90;99.90;;;;;;5037262;28;19915;-62
2022/10/21 00:25:16;;;;;;;;;;;17.90;99.90;;;;;;5037590;28;19909;-62
2022/10/21 00:27:43;;;;;;;;;;;17.90;99.90;;;;;;5037478;28;19909;-62
2022/10/21 00:30:10;;;;;;;;;;;17.90;99.90;;;;;;5038173;28;19916;-62
2022/10/21 00:32:36;;;;;;;;;;;17.90;99.90;;;;;;5038629;28;19917;-62
2022/10/21 00:35:01;;;;;;;;;;;17.90;99.90;;;;;;5038707;28;19919;-62
2022/10/21 00:37:31;;;;;;;;;;;17.90;99.90;;;;;;5038579;28;19909;-62
2022/10/21 00:39:56;;;;;;;;;;;17.90;99.90;;;;;;5038310;28;19909;-62
2022/10/21 00:42:22;;;;;;;;;;;17.90;99.90;;;;;;5038254;28;19926;-62
2022/10/21 00:45:06;;;;;;;;;;;17.90;99.90;;;;;;5038259;28;19956;-62
2022/10/21 00:47:41;;;;;;;;;;;17.90;99.90;;;;;;5037882;28;19908;-62
2022/10/21 00:50:22;;;;;;;;;;;17.90;99.90;;;;;;5039029;28;19916;-62
2022/10/21 00:52:48;;;;;;;;;;;17.90;99.90;;;;;;5055524;28;19917;-62
2022/10/21 00:55:13;;;;;;;;;;;17.90;99.90;;;;;;5038783;28;19970;-62
2022/10/21 00:57:39;;;;;;;;;;;17.90;99.90;;;;;;5038431;28;20008;-62
2022/10/21 01:00:05;;;;;;;;;;;17.90;99.90;;;;;;5039029;28;20267;-62
2022/10/21 01:02:31;;;;;;;;;;;17.90;99.90;;;;;;5038584;28;19919;-62
2022/10/21 01:04:58;;;;;;;;;;;17.90;99.90;;;;;;5037242;28;19913;-62
2022/10/21 01:07:24;;;;;;;;;;;17.90;99.90;;;;;;5037842;28;19909;-62
2022/10/21 01:09:50;;;;;;;;;;;17.90;99.90;;;;;;5038432;28;19919;-62
2022/10/21 01:12:24;;;;;;;;;;;17.90;99.90;;;;;;5037877;28;20301;-62
2022/10/21 01:14:54;;;;;;;;;;;17.90;99.90;;;;;;5037407;28;19909;-62
2022/10/21 01:17:20;;;;;;;;;;;17.90;99.90;;;;;;5037341;28;19913;-62
2022/10/21 01:19:55;;;;;;;;;;;17.90;99.90;;;;;;5038581;28;19974;-62
2022/10/21 01:22:26;;;;;;;;;;;17.90;99.90;;;;;;5038644;28;19986;-62
2022/10/21 01:25:16;;;;;;;;;;;17.90;99.90;;;;;;5038841;28;19922;-62
2022/10/21 01:27:49;;;;;;;;;;;17.90;99.90;;;;;;5037992;28;20229;-62
2022/10/21 01:30:15;;;;;;;;;;;17.90;99.90;;;;;;5038082;28;19915;-62
2022/10/21 01:32:50;;;;;;;;;;;17.90;99.90;;;;;;5038314;28;19916;-62
2022/10/21 01:35:39;;;;;;;;;;;17.90;99.90;;;;;;5038438;28;20011;-62
2022/10/21 01:38:37;;;;;;;;;;;17.90;99.90;;;;;;4998453;28;19994;-63
2022/10/21 01:41:07;;;;;;;;;;;17.90;99.90;;;;;;4992609;28;19908;-62
2022/10/21 01:43:48;;;;;;;;;;;17.90;99.90;;;;;;5036863;28;20007;-62
2022/10/21 01:46:34;;;;;;;;;;;17.80;99.90;;;;;;5037508;28;20190;-62
2022/10/21 01:49:02;;;;;;;;;;;17.90;99.90;;;;;;5035429;28;20232;-62
2022/10/21 01:51:29;;;;;;;;;;;17.90;99.90;;;;;;5035542;28;20514;-62
2022/10/21 01:54:00;;;;;;;;;;;17.90;99.90;;;;;;5034418;28;19909;-62
2022/10/21 01:56:26;;;;;;;;;;;17.80;99.90;;;;;;5034684;28;20282;-62
2022/10/21 01:58:52;;;;;;;;;;;17.90;99.90;;;;;;5034485;28;19920;-62
2022/10/21 02:01:18;;;;;;;;;;;17.90;99.90;;;;;;5034922;28;19909;-62
2022/10/21 02:03:45;;;;;;;;;;;17.90;99.90;;;;;;5035211;28;19924;-62
2022/10/21 02:06:12;;;;;;;;;;;17.80;99.90;;;;;;5035770;28;19909;-62
2022/10/21 02:08:39;;;;;;;;;;;17.90;99.90;;;;;;5035574;28;19916;-62
2022/10/21 02:11:06;;;;;;;;;;;17.80;99.90;;;;;;5036871;28;19909;-63
2022/10/21 02:13:34;;;;;;;;;;;17.90;99.90;;;;;;5036785;28;19919;-63
2022/10/21 02:16:02;;;;;;;;;;;17.90;99.90;;;;;;5036546;28;19909;-63
2022/10/21 02:18:28;;;;;;;;;;;17.90;99.90;;;;;;5036490;28;19990;-63
2022/10/21 02:20:55;;;;;;;;;;;17.80;99.90;;;;;;5036299;28;19948;-63
2022/10/21 02:23:41;;;;;;;;;;;17.80;99.90;;;;;;5036222;28;20202;-63
2022/10/21 02:26:07;;;;;;;;;;;17.80;99.90;;;;;;5036533;28;19909;-63
2022/10/21 02:28:33;;;;;;;;;;;17.80;99.90;;;;;;5039503;28;19909;-63
2022/10/21 02:30:59;;;;;;;;;;;17.80;99.90;;;;;;5039091;28;19909;-63
2022/10/21 02:33:43;;;;;;;;;;;17.80;99.90;;;;;;5038578;28;20184;-63
2022/10/21 02:36:16;;;;;;;;;;;17.80;99.90;;;;;;5038295;28;19920;-62
2022/10/21 02:38:53;;;;;;;;;;;17.80;99.90;;;;;;5038084;28;20238;-63
2022/10/21 02:41:20;;;;;;;;;;;17.80;99.90;;;;;;5039250;28;19917;-63
2022/10/21 02:43:51;;;;;;;;;;;17.80;99.90;;;;;;5039586;28;20245;-63
2022/10/21 02:46:17;;;;;;;;;;;17.80;99.90;;;;;;5040728;28;19909;-63
2022/10/21 02:48:44;;;;;;;;;;;17.80;99.90;;;;;;5041106;28;19974;-63
2022/10/21 02:51:10;;;;;;;;;;;17.80;99.90;;;;;;5041601;28;19912;-63
2022/10/21 02:53:35;;;;;;;;;;;17.80;99.90;;;;;;5040768;28;19920;-63
2022/10/21 02:56:01;;;;;;;;;;;17.80;99.90;;;;;;5041191;28;20067;-63
2022/10/21 02:58:27;;;;;;;;;;;17.80;99.90;;;;;;5040996;28;19916;-63
2022/10/21 03:00:52;;;;;;;;;;;17.80;99.90;;;;;;5040269;28;19936;-63
2022/10/21 03:03:18;;;;;;;;;;;17.80;99.90;;;;;;5039667;28;19913;-62
2022/10/21 03:05:44;;;;;;;;;;;17.80;99.90;;;;;;5039123;28;19909;-63
2022/10/21 03:08:09;;;;;;;;;;;17.80;99.90;;;;;;5038569;28;19923;-63
2022/10/21 03:10:35;;;;;;;;;;;17.80;99.90;;;;;;5056127;28;20044;-62
2022/10/21 03:13:00;;;;;;;;;;;17.80;99.90;;;;;;5038740;28;20137;-63
2022/10/21 03:15:26;;;;;;;;;;;17.80;99.90;;;;;;5039653;28;19924;-63
2022/10/21 03:17:52;;;;;;;;;;;17.80;99.90;;;;;;5038344;28;20267;-63
2022/10/21 03:20:17;;;;;;;;;;;17.80;99.90;;;;;;5038628;28;20299;-62
2022/10/21 03:22:46;;;;;;;;;;;17.80;99.90;;;;;;5039848;28;19939;-63
2022/10/21 03:25:15;;;;;;;;;;;17.80;99.90;;;;;;5040018;28;20161;-63
2022/10/21 03:27:56;;;;;;;;;;;17.80;99.90;;;;;;5040136;28;19944;-63
2022/10/21 03:30:24;;;;;;;;;;;17.80;99.90;;;;;;5039834;28;20017;-63
2022/10/21 03:32:56;;;;;;;;;;;17.80;99.90;;;;;;5039142;28;19931;-63
2022/10/21 03:35:28;;;;;;;;;;;17.80;99.90;;;;;;5040546;28;19936;-63
2022/10/21 03:37:56;;;;;;;;;;;17.80;99.90;;;;;;5038968;28;20384;-63
2022/10/21 03:40:22;;;;;;;;;;;17.80;99.90;;;;;;5039193;28;19923;-62
2022/10/21 03:42:48;;;;;;;;;;;17.80;99.90;;;;;;5055820;28;19909;-63
2022/10/21 03:45:14;;;;;;;;;;;17.80;99.90;;;;;;5038374;28;19912;-63
2022/10/21 03:47:39;;;;;;;;;;;17.80;99.90;;;;;;5038378;28;19909;-63
2022/10/21 03:50:06;;;;;;;;;;;17.80;99.90;;;;;;5035565;28;20188;-63
2022/10/21 03:52:31;;;;;;;;;;;17.80;99.90;;;;;;5035044;28;19917;-62
2022/10/21 03:54:57;;;;;;;;;;;17.80;99.90;;;;;;5034569;28;20183;-63
2022/10/21 03:57:22;;;;;;;;;;;17.80;99.90;;;;;;5033495;28;19939;-62
2022/10/21 03:59:48;;;;;;;;;;;17.80;99.90;;;;;;5035370;28;20000;-63
2022/10/21 04:02:14;;;;;;;;;;;17.80;99.90;;;;;;5035582;28;20305;-63
2022/10/21 04:04:39;;;;;;;;;;;17.80;99.90;;;;;;5035853;28;20302;-62
2022/10/21 04:07:05;;;;;;;;;;;17.80;99.90;;;;;;5036899;28;19909;-63
2022/10/21 04:09:31;;;;;;;;;;;17.80;99.90;;;;;;5035463;28;20152;-63
2022/10/21 04:11:56;;;;;;;;;;;17.80;99.90;;;;;;5035114;28;20282;-63
2022/10/21 04:14:22;;;;;;;;;;;17.80;99.90;;;;;;5035416;28;19908;-63
2022/10/21 04:17:06;;;;;;;;;;;17.80;99.90;;;;;;5035749;28;19920;-63
2022/10/21 04:19:32;;;;;;;;;;;17.80;99.90;;;;;;5038291;28;19909;-62
2022/10/21 04:22:22;;;;;;;;;;;17.80;99.90;;;;;;5039071;28;19909;-63
2022/10/21 04:24:47;;;;;;;;;;;17.80;99.90;;;;;;5037755;28;20287;-63
2022/10/21 04:27:13;;;;;;;;;;;17.80;99.90;;;;;;5035385;28;19913;-63
2022/10/21 04:29:39;;;;;;;;;;;17.80;99.90;;;;;;5041971;28;19939;-62
2022/10/21 04:32:04;;;;;;;;;;;17.80;99.90;;;;;;5034857;28;19913;-63
2022/10/21 04:34:30;;;;;;;;;;;17.80;99.90;;;;;;5033464;28;19909;-63
2022/10/21 04:36:55;;;;;;;;;;;17.80;99.90;;;;;;5034116;28;19920;-63
2022/10/21 04:39:21;;;;;;;;;;;17.80;99.90;;;;;;5033962;28;20261;-63
2022/10/21 04:41:48;;;;;;;;;;;17.80;99.90;;;;;;5033411;28;20313;-63
2022/10/21 04:44:14;;;;;;;;;;;17.80;99.90;;;;;;5034659;28;19921;-63
2022/10/21 04:46:41;;;;;;;;;;;17.80;99.90;;;;;;5016756;28;22084;-63
2022/10/21 04:49:06;;;;;;;;;;;17.80;99.90;;;;;;5033443;28;19917;-63
2022/10/21 04:51:32;;;;;;;;;;;17.80;99.90;;;;;;5032580;28;20006;-63
2022/10/21 04:53:57;;;;;;;;;;;17.80;99.90;;;;;;5031757;28;19908;-63
2022/10/21 04:56:23;;;;;;;;;;;17.80;99.90;;;;;;5032304;28;20093;-63
2022/10/21 04:58:49;;;;;;;;;;;17.80;99.90;;;;;;5032750;28;19974;-63
2022/10/21 05:01:14;;;;;;;;;;;17.80;99.90;;;;;;5032392;28;20194;-63
2022/10/21 05:03:40;;;;;;;;;;;17.80;99.90;;;;;;5032818;28;19978;-63
2022/10/21 05:06:05;;;;;;;;;;;17.80;99.90;;;;;;5031479;28;20262;-63
2022/10/21 05:08:31;;;;;;;;;;;17.80;99.90;;;;;;5029376;28;19997;-63
2022/10/21 05:10:59;;;;;;;;;;;17.80;99.90;;;;;;5031696;28;20330;-63
2022/10/21 05:13:25;;;;;;;;;;;17.80;99.90;;;;;;5031474;28;20024;-63
2022/10/21 05:15:50;;;;;;;;;;;17.80;99.90;;;;;;5032379;28;19995;-63
2022/10/21 05:18:16;;;;;;;;;;;17.80;99.90;;;;;;5029402;28;20290;-63
2022/10/21 05:20:41;;;;;;;;;;;17.80;99.90;;;;;;5030035;28;20039;-63
2022/10/21 05:23:07;;;;;;;;;;;17.80;99.90;;;;;;5030576;28;19912;-63
2022/10/21 05:25:32;;;;;;;;;;;17.80;99.90;;;;;;5030330;28;19909;-63
2022/10/21 05:27:58;;;;;;;;;;;17.80;99.90;;;;;;5029152;28;19908;-63
2022/10/21 05:30:24;;;;;;;;;;;17.80;99.90;;;;;;5029794;28;20171;-63
2022/10/21 05:32:49;;;;;;;;;;;17.80;99.90;;;;;;5029578;28;19917;-63
2022/10/21 05:35:15;;;;;;;;;;;17.80;99.90;;;;;;5028223;28;19915;-63
2022/10/21 05:37:40;;;;;;;;;;;17.80;99.90;;;;;;5029224;28;19909;-63
2022/10/21 05:40:06;;;;;;;;;;;17.80;99.90;;;;;;5028019;28;19909;-63
2022/10/21 05:42:32;;;;;;;;;;;17.80;99.90;;;;;;5026341;28;19927;-63
2022/10/21 05:44:58;;;;;;;;;;;17.80;99.90;;;;;;5028690;28;19913;-63
2022/10/21 05:47:23;;;;;;;;;;;17.80;99.90;;;;;;5026765;28;20445;-63
2022/10/21 05:49:49;;;;;;;;;;;17.80;99.90;;;;;;5026485;28;20407;-63
2022/10/21 05:52:16;;;;;;;;;;;17.80;99.90;;;;;;5025857;28;20022;-62
2022/10/21 05:54:41;;;;;;;;;;;17.80;99.90;;;;;;5028145;28;20057;-63
2022/10/21 05:57:07;;;;;;;;;;;17.80;99.90;;;;;;5026741;28;20130;-63
2022/10/21 05:59:32;;;;;;;;;;;17.80;99.90;;;;;;5028492;28;19909;-63
2022/10/21 06:01:58;;;;;;;;;;;17.80;99.90;;;;;;5027138;28;19909;-63
2022/10/21 06:04:24;;;;;;;;;;;17.80;99.90;;;;;;5030263;28;20330;-63
2022/10/21 06:06:49;;;;;;;;;;;17.80;99.90;;;;;;5030739;28;20267;-64
2022/10/21 06:09:15;;;;;;;;;;;17.80;99.90;;;;;;5032551;28;20270;-63
2022/10/21 06:11:40;;;;;;;;;;;17.90;99.90;;;;;;5034331;28;20132;-63
2022/10/21 06:14:06;;;;;;;;;;;17.80;99.90;;;;;;5032785;28;20132;-63
2022/10/21 06:16:34;;;;;;;;;;;17.80;99.90;;;;;;5033075;28;19905;-63
2022/10/21 06:19:00;;;;;;;;;;;17.90;99.90;;;;;;5029162;28;19909;-63
2022/10/21 06:21:26;;;;;;;;;;;17.90;99.90;;;;;;5029303;28;19908;-63
2022/10/21 06:23:52;;;;;;;;;;;17.80;99.90;;;;;;5029319;28;20072;-63
2022/10/21 06:26:17;;;;;;;;;;;17.90;99.90;;;;;;5030272;28;19909;-63
2022/10/21 06:28:44;;;;;;;;;;;17.90;99.90;;;;;;5030298;28;19909;-63
2022/10/21 06:31:12;;;;;;;;;;;17.90;99.90;;;;;;5028595;28;19996;-63
2022/10/21 06:33:37;;;;;;;;;;;17.90;99.90;;;;;;5028919;28;19948;-62
2022/10/21 06:36:03;;;;;;;;;;;17.90;99.90;;;;;;5029883;28;19967;-63
2022/10/21 06:38:31;;;;;;;;;;;17.90;99.90;;;;;;5031770;28;19944;-63
2022/10/21 06:41:00;;;;;;;;;;;17.90;99.90;;;;;;5030538;28;20008;-63
2022/10/21 06:43:26;;;;;;;;;;;17.90;99.90;;;;;;5029219;28;19951;-63
2022/10/21 06:45:51;;;;;;;;;;;17.90;99.90;;;;;;5031945;28;19915;-63
2022/10/21 06:48:17;;;;;;;;;;;17.90;99.90;;;;;;5033806;28;19915;-63
2022/10/21 06:50:43;;;;;;;;;;;17.90;99.90;;;;;;5032693;28;19948;-63
2022/10/21 06:53:08;;;;;;;;;;;17.90;99.90;;;;;;5031872;28;20396;-62
2022/10/21 06:55:34;;;;;;;;;;;17.90;99.90;;;;;;5030728;28;19919;-63
2022/10/21 06:58:00;;;;;;;;;;;17.90;99.90;;;;;;5031392;28;19917;-62
2022/10/21 07:00:25;;;;;;;;;;;17.90;99.90;;;;;;5032343;28;19909;-63
2022/10/21 07:02:51;;;;;;;;;;;17.90;99.90;;;;;;5030841;28;20301;-63
2022/10/21 07:05:16;;;;;;;;;;;18.00;99.90;;;;;;5031365;28;19912;-64
2022/10/21 07:07:42;;;;;;;;;;;18.00;99.90;;;;;;5032079;28;20088;-62
2022/10/21 07:10:08;;;;;;;;;;;18.00;99.90;;;;;;5032537;28;20068;-63
2022/10/21 07:12:34;;;;;;;;;;;18.00;99.90;;;;;;5029906;28;19940;-63
2022/10/21 07:15:00;;;;;;;;;;;18.00;99.90;;;;;;5029986;28;19996;-63
2022/10/21 07:17:27;;;;;;;;;;;18.00;99.90;;;;;;5030778;28;20138;-63
2022/10/21 07:19:53;;;;;;;;;;;18.00;99.90;;;;;;5032636;28;20231;-62
2022/10/21 07:22:18;;;;;;;;;;;18.00;99.90;;;;;;5032092;28;19994;-63
2022/10/21 07:24:44;;;;;;;;;;;18.00;99.90;;;;;;5031924;28;19912;-63
2022/10/21 07:27:09;;;;;;;;;;;18.10;99.90;;;;;;5031079;28;20141;-63
2022/10/21 07:29:35;;;;;;;;;;;18.00;99.90;;;;;;5028822;28;20194;-63
2022/10/21 07:32:01;;;;;;;;;;;18.10;99.90;;;;;;5029623;28;20029;-62
2022/10/21 07:34:26;;;;;;;;;;;18.10;99.90;;;;;;5030464;28;19920;-63
2022/10/21 07:36:52;;;;;;;;;;;18.10;99.90;;;;;;5029300;28;19972;-63
2022/10/21 07:39:20;;;;;;;;;;;18.10;99.90;;;;;;5027493;28;19948;-63
2022/10/21 07:41:50;;;;;;;;;;;18.10;99.90;;;;;;5027303;28;20086;-63
2022/10/21 07:44:16;;;;;;;;;;;18.10;99.90;;;;;;5028174;28;19974;-63
2022/10/21 07:46:43;;;;;;;;;;;18.10;99.90;;;;;;5027996;28;20011;-63
2022/10/21 07:49:09;;;;;;;;;;;18.10;99.90;;;;;;5028890;28;19909;-63
2022/10/21 07:51:35;;;;;;;;;;;18.10;99.90;;;;;;5035553;28;19897;-63
2022/10/21 07:54:01;;;;;;;;;;;18.10;99.90;;;;;;5041129;28;20077;-62
2022/10/21 07:56:31;;;;;;;;;;;18.10;99.90;;;;;;5029235;28;19909;-63
2022/10/21 07:58:57;;;;;;;;;;;18.10;99.90;;;;;;5030201;28;19950;-63
2022/10/21 08:01:23;;;;;;;;;;;18.10;99.90;;;;;;5046958;28;19909;-63
2022/10/21 08:03:51;;;;;;;;;;;18.10;99.90;;;;;;5030230;28;20217;-63
2022/10/21 08:06:17;;;;;;;;;;;18.10;99.90;;;;;;5030465;28;19959;-63
2022/10/21 08:08:43;;;;;;;;;;;18.10;99.90;;;;;;5028240;28;20423;-62
2022/10/21 08:11:08;;;;;;;;;;;18.10;99.90;;;;;;5030539;28;19912;-63
2022/10/21 08:13:34;;;;;;;;;;;18.10;99.90;;;;;;5030448;28;19920;-63
2022/10/21 08:16:01;;;;;;;;;;;18.20;99.90;;;;;;5029585;28;20157;-63
2022/10/21 08:18:26;;;;;;;;;;;18.10;99.90;;;;;;5028651;28;20142;-63
2022/10/21 08:20:52;;;;;;;;;;;18.10;99.90;;;;;;5028828;28;20098;-63
2022/10/21 08:23:19;;;;;;;;;;;18.20;99.90;;;;;;5029946;28;19912;-63
2022/10/21 08:25:46;;;;;;;;;;;18.20;99.90;;;;;;5029948;28;20263;-63
2022/10/21 08:28:11;;;;;;;;;;;18.20;99.90;;;;;;5028467;28;20353;-63
2022/10/21 08:30:37;;;;;;;;;;;18.20;99.90;;;;;;5030688;28;20007;-63
2022/10/21 08:33:02;;;;;;;;;;;18.20;99.90;;;;;;5031222;28;20020;-63
2022/10/21 08:35:29;;;;;;;;;;;18.20;99.90;;;;;;5032080;28;20390;-63
2022/10/21 08:37:55;;;;;;;;;;;18.20;99.90;;;;;;5033034;28;20256;-63
2022/10/21 08:40:21;;;;;;;;;;;18.20;99.90;;;;;;5031954;28;19944;-63
2022/10/21 08:42:47;;;;;;;;;;;18.20;99.90;;;;;;5031357;28;19913;-63
2022/10/21 08:45:26;;;;;;;;;;;18.20;99.90;;;;;;5028372;28;19924;-63
2022/10/21 08:47:54;;;;;;;;;;;18.20;99.90;;;;;;5029565;28;19909;-63
2022/10/21 08:50:34;;;;;;;;;;;18.20;99.90;;;;;;5030343;28;19923;-63
2022/10/21 08:53:11;;;;;;;;;;;18.20;99.90;;;;;;5029967;28;19935;-63
2022/10/21 08:55:39;;;;;;;;;;;18.20;99.90;;;;;;5030939;28;20047;-63
2022/10/21 08:58:05;;;;;;;;;;;18.20;99.90;;;;;;5032254;28;19909;-63
2022/10/21 09:00:43;;;;;;;;;;;18.20;99.90;;;;;;5029794;28;19923;-68
2022/10/21 09:03:17;;;;;;;;;;;18.20;99.90;;;;;;5032421;28;19959;-65
2022/10/21 09:05:52;;;;;;;;;;;18.20;99.90;;;;;;5030120;28;19912;-63
2022/10/21 09:08:26;;;;;;;;;;;18.20;99.90;;;;;;5047519;28;19936;-63
2022/10/21 09:10:59;;;;;;;;;;;18.20;99.90;;;;;;5046550;28;20334;-63
2022/10/21 09:13:24;;;;;;;;;;;18.20;99.90;;;;;;5028895;28;20152;-63
2022/10/21 09:15:53;;;;;;;;;;;18.20;99.90;;;;;;5046880;28;19923;-63
2022/10/21 09:18:30;;;;;;;;;;;18.20;99.90;;;;;;5045677;28;19941;-63
2022/10/21 09:21:03;;;;;;;;;;;18.20;99.90;;;;;;5028573;28;19909;-63
2022/10/21 09:23:36;;;;;;;;;;;18.20;99.90;;;;;;5029114;28;20012;-63
2022/10/21 09:26:03;;;;;;;;;;;18.20;99.90;;;;;;5026405;28;20183;-63
2022/10/21 09:28:29;;;;;;;;;;;18.20;99.90;;;;;;5027673;28;20271;-63
2022/10/21 09:30:56;;;;;;;;;;;18.20;99.90;;;;;;5029075;28;19913;-63
2022/10/21 09:33:26;;;;;;;;;;;18.20;99.90;;;;;;5027695;28;19916;-63
2022/10/21 09:35:53;;;;;;;;;;;18.20;99.90;;;;;;5024375;28;19908;-64
2022/10/21 09:38:22;;;;;;;;;;;18.20;99.90;;;;;;5024924;28;20263;-63
2022/10/21 09:40:50;;;;;;;;;;;18.20;99.90;;;;;;5042807;28;19909;-63
2022/10/21 09:43:18;;;;;;;;;;;18.20;99.90;;;;;;5027064;28;20302;-63
2022/10/21 09:45:44;;;;;;;;;;;18.20;99.90;;;;;;5027567;28;19916;-62
2022/10/21 09:48:13;;;;;;;;;;;18.20;99.90;;;;;;5029078;28;20245;-64
2022/10/21 09:50:39;;;;;;;;;;;18.20;99.90;;;;;;5046604;28;20084;-63
2022/10/21 09:53:13;;;;;;;;;;;18.20;99.90;;;;;;5028155;28;19917;-63
2022/10/21 09:55:39;;;;;;;;;;;18.30;99.90;;;;;;5028904;28;19908;-63
2022/10/21 09:58:05;;;;;;;;;;;18.30;99.90;;;;;;5029292;28;20458;-63
2022/10/21 10:00:44;;;;;;;;;;;18.30;99.90;;;;;;5029537;28;19913;-63
2022/10/21 10:03:10;;;;;;;;;;;18.30;99.90;;;;;;5029414;28;20184;-56
2022/10/21 10:05:54;;;;;;;;;;;18.30;99.90;;;;;;5088586;22;19951;-7
2022/10/21 10:08:25;;;;;;;;;;;18.40;99.90;;;;;;5086239;28;19940;-11
2022/10/21 10:11:00;;;;;;;;;;;18.40;99.90;;;;;;5087130;28;20167;-11
2022/10/21 10:13:27;;;;;;;;;;;18.40;99.90;;;;;;5093523;28;20007;-11
2022/10/21 10:15:53;;;;;;;;;;;18.40;99.90;;;;;;5092663;28;20377;-10
2022/10/21 10:18:20;;;;;;;;;;;18.50;99.90;;;;;;5087636;28;20007;-10
2022/10/21 10:21:02;;;;;;;;;;;18.50;99.90;;;;;;5089136;28;19948;-10
2022/10/21 10:23:27;;;;;;;;;;;18.50;99.90;;;;;;5088957;28;19969;-10
2022/10/21 10:25:53;;;;;;;;;;;18.50;99.90;;;;;;5087054;28;19908;-10
2022/10/21 10:28:22;;;;;;;;;;;18.50;99.90;;;;;;5086262;28;19914;-10
2022/10/21 10:30:54;;;;;;;;;;;18.50;99.90;;;;;;5086235;28;19909;-10
2022/10/21 10:33:23;;;;;;;;;;;18.50;99.90;;;;;;5086330;28;20208;-10
2022/10/21 10:35:56;;;;;;;;;;;18.50;99.90;;;;;;5087129;28;20135;-9
2022/10/21 10:38:22;;;;;;;;;;;18.50;99.90;;;;;;5086858;28;19908;-11
2022/10/21 10:40:48;;;;;;;;;;;18.50;99.90;;;;;;5084231;28;19908;-10
2022/10/21 10:43:19;;;;;;;;;;;18.50;99.90;;;;;;5085607;28;19919;-10
2022/10/21 10:45:51;;;;;;;;;;;18.50;99.90;;;;;;5088032;28;19909;-10
2022/10/21 10:48:29;;;;;;;;;;;18.50;99.90;;;;;;5086989;28;20286;-10
2022/10/21 10:50:56;;;;;;;;;;;18.50;99.90;;;;;;5084596;28;20158;-10
2022/10/21 10:53:30;;;;;;;;;;;18.50;99.90;;;;;;5090524;28;19908;-10
2022/10/21 10:56:04;;;;;;;;;;;18.50;99.90;;;;;;5089957;28;19908;-10
2022/10/21 10:58:33;;;;;;;;;;;18.50;99.90;;;;;;5088943;28;19908;-10
2022/10/21 11:01:01;;;;;;;;;;;18.50;99.90;;;;;;5088825;28;19916;-10
2022/10/21 11:03:30;;;;;;;;;;;18.60;99.90;;;;;;5087542;28;19947;-10
2022/10/21 11:06:04;;;;;;;;;;;18.60;99.90;;;;;;5087599;28;20153;-10
2022/10/21 11:08:34;;;;;;;;;;;18.60;99.90;;;;;;5089171;28;20170;-9
2022/10/21 11:11:23;;;;;;;;;;;18.60;99.90;;;;;;5086408;28;19908;-10
2022/10/21 11:13:49;;;;;;;;;;;18.60;99.90;;;;;;5075231;28;19942;-9
2022/10/21 11:16:18;;;;;;;;;;;18.60;99.90;;;;;;5087666;28;19966;-10
2022/10/21 11:18:51;;;;;;;;;;;18.60;99.90;;;;;;5086514;28;19908;-10
2022/10/21 11:21:19;;;;;;;;;;;18.60;99.90;;;;;;5087972;28;19912;-11
2022/10/21 11:24:04;;;;;;;;;;;18.60;99.90;;;;;;5086259;28;19952;-10
2022/10/21 11:26:36;;;;;;;;;;;18.60;99.90;;;;;;5087178;28;20086;-10
2022/10/21 11:29:22;;;;;;;;;;;18.60;99.90;;;;;;5089510;28;19908;-10
2022/10/21 11:31:50;;;;;;;;;;;18.60;99.90;;;;;;5088224;28;20009;-11
2022/10/21 11:34:28;;;;;;;;;;;18.60;99.90;;;;;;5087324;28;19968;-10
2022/10/21 11:37:03;;;;;;;;;;;18.60;99.90;;;;;;5083554;28;19908;-10
2022/10/21 11:39:45;;;;;;;;;;;18.60;99.90;;;;;;5085951;28;19981;-9
2022/10/21 11:42:30;;;;;;;;;;;18.60;99.90;;;;;;5086895;28;19916;-11
2022/10/21 11:45:20;;;;;;;;;;;18.60;99.90;;;;;;5085719;28;20122;-9
2022/10/21 11:47:54;;;;;;;;;;;18.60;99.90;;;;;;5085786;28;19908;-11
2022/10/21 11:50:25;;;;;;;;;;;18.60;99.90;;;;;;5087561;28;19939;-9
2022/10/21 11:52:50;;;;;;;;;;;18.60;99.90;;;;;;5087187;28;19908;-10
2022/10/21 11:55:42;;;;;;;;;;;18.70;99.90;;;;;;5088110;28;19919;-9
2022/10/21 11:58:14;;;;;;;;;;;18.70;99.90;;;;;;5085161;28;19908;-9
2022/10/21 12:00:47;;;;;;;;;;;18.70;99.90;;;;;;5085479;28;20292;-10
2022/10/21 12:03:34;;;;;;;;;;;18.70;99.90;;;;;;5087222;28;20353;-10
2022/10/21 12:06:22;;;;;;;;;;;18.70;99.90;;;;;;5086130;28;19916;-11
2022/10/21 12:08:59;;;;;;;;;;;18.70;99.90;;;;;;5080173;28;20075;-10
2022/10/21 12:11:28;;;;;;;;;;;18.70;99.90;;;;;;5086314;28;19946;-11
2022/10/21 12:13:59;;;;;;;;;;;18.70;99.90;;;;;;5084576;28;19908;-10
2022/10/21 12:16:27;;;;;;;;;;;18.80;99.90;;;;;;5088860;28;19908;-9
2022/10/21 12:18:54;;;;;;;;;;;18.80;99.90;;;;;;5087162;28;20154;-10
2022/10/21 12:21:23;;;;;;;;;;;18.80;99.90;;;;;;5087195;28;20068;-10
2022/10/21 12:23:54;;;;;;;;;;;18.80;99.90;;;;;;5087663;28;19965;-10
2022/10/21 12:26:38;;;;;;;;;;;18.90;99.90;;;;;;5086319;28;19909;-11
2022/10/21 12:29:17;;;;;;;;;;;18.90;99.90;;;;;;5085720;28;19908;-10
2022/10/21 12:31:48;;;;;;;;;;;18.90;99.90;;;;;;5088600;28;19912;-10
2022/10/21 12:34:17;;;;;;;;;;;19.00;99.90;;;;;;5087249;28;20158;-10
2022/10/21 12:36:50;;;;;;;;;;;19.10;99.90;;;;;;5085312;28;20053;-11
2022/10/21 12:39:34;;;;;;;;;;;19.20;99.90;;;;;;5085820;28;20151;-10
2022/10/21 12:42:13;;;;;;;;;;;19.20;99.90;;;;;;5084645;28;20257;-10
2022/10/21 12:44:43;;;;;;;;;;;19.20;99.90;;;;;;5081554;28;19923;-10
2022/10/21 12:47:29;;;;;;;;;;;19.20;99.90;;;;;;5071190;28;19909;-11
2022/10/21 12:50:13;;;;;;;;;;;19.20;99.90;;;;;;5079388;28;19974;-9
2022/10/21 12:52:40;;;;;;;;;;;19.30;99.90;;;;;;5086784;28;19975;-9
2022/10/21 12:55:16;;;;;;;;;;;19.30;99.90;;;;;;5085289;28;19955;-10
2022/10/21 12:57:42;;;;;;;;;;;19.40;99.90;;;;;;5086889;28;19916;-11
2022/10/21 13:00:26;;;;;;;;;;;19.40;99.90;;;;;;5084364;28;20003;-11
2022/10/21 13:03:06;;;;;;;;;;;19.40;99.90;;;;;;5085298;28;19908;-10
2022/10/21 13:05:35;;;;;;;;;;;19.50;99.90;;;;;;5082713;28;19916;-10
2022/10/21 13:08:14;;;;;;;;;;;19.50;99.90;;;;;;5083454;28;19908;-9
2022/10/21 13:10:40;;;;;;;;;;;19.50;99.90;;;;;;5083968;28;19916;-12
2022/10/21 13:13:26;;;;;;;;;;;19.50;99.90;;;;;;5082605;28;19908;-11
2022/10/21 13:15:52;;;;;;;;;;;19.50;99.90;;;;;;5084457;28;19969;-10
2022/10/21 13:18:37;;;;;;;;;;;19.50;99.90;;;;;;5085235;28;20221;-10
2022/10/21 13:21:02;;;;;;;;;;;19.50;99.90;;;;;;5085506;28;20047;-9
2022/10/21 13:23:30;;;;;;;;;;;19.50;99.90;;;;;;5086332;28;19915;-10
2022/10/21 13:26:11;;;;;;;;;;;19.50;99.90;;;;;;5085100;28;19937;-10
2022/10/21 13:28:37;;;;;;;;;;;19.50;99.90;;;;;;5086772;28;20332;-11
2022/10/21 13:31:02;;;;;;;;;;;19.50;99.90;;;;;;5085994;28;20307;-9
2022/10/21 13:33:31;;;;;;;;;;;19.50;99.90;;;;;;5088878;28;20193;-10
2022/10/21 13:36:23;;;;;;;;;;;19.50;99.90;;;;;;5087588;28;19908;-10
2022/10/21 13:38:50;;;;;;;;;;;19.50;99.90;;;;;;5060856;28;19986;-10
2022/10/21 13:41:24;;;;;;;;;;;19.50;99.90;;;;;;5083101;28;19912;-11
2022/10/21 13:43:53;;;;;;;;;;;19.50;99.90;;;;;;5084339;28;19912;-9
2022/10/21 13:46:23;;;;;;;;;;;19.50;99.90;;;;;;5086114;28;19916;-10
2022/10/21 13:48:49;;;;;;;;;;;19.40;99.90;;;;;;5085883;28;19908;-11
2022/10/21 13:51:17;;;;;;;;;;;19.40;99.90;;;;;;5085031;28;19913;-11
2022/10/21 13:53:44;;;;;;;;;;;19.40;99.90;;;;;;5085088;28;19973;-10
2022/10/21 13:56:21;;;;;;;;;;;19.40;99.90;;;;;;5086267;28;19935;-10
2022/10/21 13:58:46;;;;;;;;;;;19.40;99.90;;;;;;5087828;28;20283;-10
2022/10/21 14:01:20;;;;;;;;;;;19.40;99.90;;;;;;5086696;28;19909;-11
2022/10/21 14:03:47;;;;;;;;;;;19.40;99.90;;;;;;5084896;28;20012;-10
2022/10/21 14:06:24;;;;;;;;;;;19.40;99.90;;;;;;5085784;28;20190;-10
2022/10/21 14:08:50;;;;;;;;;;;19.50;99.90;;;;;;5085204;28;19915;-9
2022/10/21 14:11:18;;;;;;;;;;;19.40;99.90;;;;;;5084731;28;19909;-12
2022/10/21 14:13:46;;;;;;;;;;;19.50;99.90;;;;;;5084818;28;19998;-11
2022/10/21 14:16:19;;;;;;;;;;;19.50;99.90;;;;;;5085729;28;19908;-10
2022/10/21 14:18:45;;;;;;;;;;;19.50;99.90;;;;;;5086403;28;20015;-10
2022/10/21 14:21:21;;;;;;;;;;;19.50;99.90;;;;;;5087683;28;19968;-10
2022/10/21 14:23:48;;;;;;;;;;;19.50;99.90;;;;;;5087348;28;19931;-10
2022/10/21 14:26:13;;;;;;;;;;;19.50;99.90;;;;;;5089598;28;20075;-11
2022/10/21 14:28:39;;;;;;;;;;;19.40;99.90;;;;;;5090269;28;20034;-9
2022/10/21 14:31:06;;;;;;;;;;;19.50;99.90;;;;;;5090188;28;19918;-10